createdAt,value
2023-06-24T00:03:04.572Z,100400.83
2023-06-24T00:08:08.216Z,100413.98
2023-06-24T00:13:13.823Z,100413.44
2023-06-24T00:18:16.712Z,100417.57
2023-06-24T00:23:27.781Z,100424.89
2023-06-24T00:28:32.302Z,100420.55
2023-06-24T00:33:37.550Z,100417.21
2023-06-24T00:38:41.243Z,100422.92
2023-06-24T00:43:44.102Z,100424.48
2023-06-24T00:48:46.902Z,100421.66
2023-06-24T00:53:51.096Z,100420.89
2023-06-24T00:58:54.445Z,100421.75
2023-06-24T01:03:57.440Z,100423.80
2023-06-24T01:09:01.401Z,100417.98
2023-06-24T01:14:04.418Z,100422.13
2023-06-24T01:19:30.100Z,100417.46
2023-06-24T01:24:59.400Z,100423.89
2023-06-24T01:30:17.270Z,100421.34
2023-06-24T01:35:27.854Z,100421.98
2023-06-24T01:40:45.324Z,100425.65
2023-06-24T01:45:52.508Z,100430.09
2023-06-24T01:51:12.010Z,100435.83
2023-06-24T01:56:17.466Z,100429.73
2023-06-24T02:01:22.080Z,100427.01
2023-06-24T02:06:27.991Z,100422.29
2023-06-24T02:11:33.686Z,100420.20
2023-06-24T02:16:39.162Z,100428.02
2023-06-24T02:21:43.345Z,100437.64
2023-06-24T02:26:49.661Z,100439.15
2023-06-24T02:31:52.620Z,100442.17
2023-06-24T02:36:55.414Z,100449.87
2023-06-24T02:41:58.238Z,100459.24
2023-06-24T02:47:01.613Z,100459.60
2023-06-24T02:52:05.030Z,100455.20
2023-06-24T02:57:09.798Z,100451.30
2023-06-24T03:02:13.097Z,100441.28
2023-06-24T03:07:16.189Z,100438.08
2023-06-24T03:12:19.214Z,100438.27
2023-06-24T03:17:22.119Z,100444.58
2023-06-24T03:22:25.458Z,100444.41
2023-06-24T03:27:28.320Z,100455.83
2023-06-24T03:32:31.233Z,100466.48
2023-06-24T03:37:34.093Z,100470.23
2023-06-24T03:42:37.059Z,100476.74
2023-06-24T03:47:40.024Z,100473.55
2023-06-24T03:52:42.835Z,100475.23
2023-06-24T03:57:45.659Z,100475.64
2023-06-24T04:02:49.078Z,100482.23
2023-06-24T04:07:53.530Z,100480.10
2023-06-24T04:12:56.467Z,100475.32
2023-06-24T04:17:59.321Z,100481.18
2023-06-24T04:23:02.293Z,100477.42
2023-06-24T04:28:08.090Z,100479.52
2023-06-24T04:33:10.867Z,100485.38
2023-06-24T04:38:19.201Z,100495.84
2023-06-24T04:43:23.004Z,100502.12
2023-06-24T04:48:26.092Z,100509.06
2023-06-24T04:53:29.104Z,100504.53
2023-06-24T04:58:32.073Z,100509.42
2023-06-24T05:03:34.858Z,100512.91
2023-06-24T05:08:37.673Z,100511.89
2023-06-24T05:13:41.152Z,100511.63
2023-06-24T05:18:46.504Z,100516.38
2023-06-24T05:23:49.440Z,100517.58
2023-06-24T05:28:52.386Z,100521.11
2023-06-24T05:33:55.322Z,100523.96
2023-06-24T05:38:58.175Z,100515.95
2023-06-24T05:44:05.837Z,100516.02
2023-06-24T05:49:08.687Z,100510.78
2023-06-24T05:54:11.581Z,100508.34
2023-06-24T05:59:14.397Z,100511.23
2023-06-24T06:04:17.324Z,100504.95
2023-06-24T06:09:22.013Z,100511.35
2023-06-24T06:14:28.223Z,100515.89
2023-06-24T06:19:31.712Z,100516.17
2023-06-24T06:24:37.007Z,100523.64
2023-06-24T06:29:39.823Z,100522.50
2023-06-24T06:34:44.369Z,100523.08
2023-06-24T06:39:47.354Z,100525.95
2023-06-24T06:44:50.095Z,100534.40
2023-06-24T06:49:52.957Z,100528.95
2023-06-24T06:54:56.444Z,100532.19
2023-06-24T06:59:59.855Z,100537.73
2023-06-24T07:05:02.998Z,100541.95
2023-06-24T07:10:07.297Z,100546.28
2023-06-24T07:15:13.384Z,100549.49
2023-06-24T07:20:16.564Z,100551.81
2023-06-24T07:25:19.435Z,100549.38
2023-06-24T07:30:22.287Z,100546.69
2023-06-24T07:35:25.658Z,100549.00
2023-06-24T07:40:28.518Z,100536.44
2023-06-24T07:45:31.407Z,100537.25
2023-06-24T07:50:35.722Z,100543.17
2023-06-24T07:55:38.696Z,100540.28
2023-06-24T08:00:42.308Z,100534.77
2023-06-24T08:05:46.325Z,100528.41
2023-06-24T08:10:50.875Z,100522.02
2023-06-24T08:15:53.733Z,100518.80
2023-06-24T08:20:56.762Z,100520.11
2023-06-24T08:26:12.226Z,100519.12
2023-06-24T08:31:19.920Z,100514.54
2023-06-24T08:36:25.549Z,100515.36
2023-06-24T08:41:28.412Z,100515.93
2023-06-24T08:46:34.789Z,100510.36
2023-06-24T08:51:44.020Z,100511.45
2023-06-24T08:56:46.889Z,100512.80
2023-06-24T09:01:51.473Z,100517.17
2023-06-24T09:06:54.436Z,100519.84
2023-06-24T09:12:12.421Z,100523.08
2023-06-24T09:17:18.683Z,100524.66
2023-06-24T09:22:21.610Z,100526.20
2023-06-24T09:27:25.228Z,100526.17
2023-06-24T09:32:31.934Z,100530.55
2023-06-24T09:37:35.402Z,100531.14
2023-06-24T09:42:38.390Z,100536.33
2023-06-24T09:47:41.549Z,100532.44
2023-06-24T09:52:46.394Z,100534.72
2023-06-24T09:57:54.569Z,100535.79
2023-06-24T10:03:00.809Z,100540.75
2023-06-24T10:08:08.130Z,100541.99
2023-06-24T10:13:11.207Z,100542.81
2023-06-24T10:18:32.804Z,100542.99
2023-06-24T10:23:48.418Z,100540.31
2023-06-24T10:29:07.416Z,100544.05
2023-06-24T10:34:14.020Z,100547.34
2023-06-24T10:39:41.292Z,100546.05
2023-06-24T10:44:50.505Z,100545.29
2023-06-24T10:49:53.445Z,100545.35
2023-06-24T10:54:58.697Z,100542.41
2023-06-24T11:00:03.041Z,100538.70
2023-06-24T11:05:07.100Z,100535.88
2023-06-24T11:10:14.289Z,100533.66
2023-06-24T11:15:18.533Z,100537.98
2023-06-24T11:20:21.943Z,100539.60
2023-06-24T11:25:24.953Z,100536.86
2023-06-24T11:30:29.479Z,100531.19
2023-06-24T11:35:36.457Z,100533.33
2023-06-24T11:40:40.398Z,100529.83
2023-06-24T11:45:43.281Z,100528.02
2023-06-24T11:50:55.150Z,100522.96
2023-06-24T11:55:58.548Z,100517.74
2023-06-24T12:01:01.745Z,100512.42
2023-06-24T12:06:04.648Z,100509.64
2023-06-24T12:11:07.637Z,100506.67
2023-06-24T12:16:10.419Z,100509.42
2023-06-24T12:21:13.380Z,100505.08
2023-06-24T12:26:16.628Z,100503.88
2023-06-24T12:31:19.430Z,100501.83
2023-06-24T12:36:23.554Z,100499.11
2023-06-24T12:41:28.265Z,100494.07
2023-06-24T12:46:31.094Z,100494.63
2023-06-24T12:51:34.514Z,100493.89
2023-06-24T12:56:37.469Z,100495.71
2023-06-24T13:01:40.724Z,100491.13
2023-06-24T13:06:43.609Z,100496.72
2023-06-24T13:11:46.770Z,100497.91
2023-06-24T13:16:49.661Z,100492.68
2023-06-24T13:21:52.570Z,100496.23
2023-06-24T13:26:55.393Z,100495.44
2023-06-24T13:31:58.252Z,100495.88
2023-06-24T13:37:01.894Z,100495.13
2023-06-24T13:42:04.999Z,100497.67
2023-06-24T13:47:08.202Z,100498.55
2023-06-24T13:52:11.077Z,100494.95
2023-06-24T13:57:13.994Z,100496.77
2023-06-24T14:02:17.010Z,100497.08
2023-06-24T14:07:20.283Z,100493.20
2023-06-24T14:12:23.479Z,100495.19
2023-06-24T14:17:26.478Z,100493.56
2023-06-24T14:22:32.458Z,100500.85
2023-06-24T14:27:35.331Z,100502.77
2023-06-24T14:32:43.944Z,100494.92
2023-06-24T14:37:46.812Z,100492.32
2023-06-24T14:42:49.656Z,100498.63
2023-06-24T14:47:52.835Z,100498.98
2023-06-24T14:52:55.657Z,100502.33
2023-06-24T14:57:58.943Z,100494.73
2023-06-24T15:03:03.935Z,100495.19
2023-06-24T15:08:07.799Z,100496.64
2023-06-24T15:13:12.961Z,100499.81
2023-06-24T15:18:18.257Z,100497.29
2023-06-24T15:23:22.408Z,100495.89
2023-06-24T15:28:28.198Z,100500.11
2023-06-24T15:33:31.254Z,100501.38
2023-06-24T15:38:34.194Z,100499.09
2023-06-24T15:43:37.128Z,100496.84
2023-06-24T15:48:42.476Z,100494.11
2023-06-24T15:53:45.500Z,100494.48
2023-06-24T15:58:48.450Z,100501.95
2023-06-24T16:03:53.896Z,100499.95
2023-06-24T16:08:57.724Z,100497.92
2023-06-24T16:14:01.305Z,100503.30
2023-06-24T16:19:04.774Z,100506.63
2023-06-24T16:24:07.625Z,100510.73
2023-06-24T16:29:10.459Z,100508.20
2023-06-24T16:34:23.311Z,100511.91
2023-06-24T16:39:27.495Z,100514.69
2023-06-24T16:44:33.966Z,100515.98
2023-06-24T16:49:36.780Z,100526.81
2023-06-24T16:54:39.554Z,100525.71
2023-06-24T16:59:42.501Z,100529.95
2023-06-24T17:04:45.372Z,100533.08
2023-06-24T17:09:48.349Z,100534.90
2023-06-24T17:14:52.413Z,100539.67
2023-06-24T17:19:55.279Z,100539.41
2023-06-24T17:24:58.359Z,100534.46
2023-06-24T17:30:02.721Z,100530.96
2023-06-24T17:35:06.067Z,100533.17
2023-06-24T17:40:10.009Z,100536.24
2023-06-24T17:45:13.069Z,100533.42
2023-06-24T17:50:16.511Z,100534.69
2023-06-24T17:55:19.536Z,100538.89
2023-06-24T18:00:22.477Z,100536.76
2023-06-24T18:05:25.853Z,100540.23
2023-06-24T18:10:28.949Z,100542.27
2023-06-24T18:15:31.936Z,100541.19
2023-06-24T18:20:35.080Z,100539.73
2023-06-24T18:25:38.415Z,100541.74
2023-06-24T18:30:41.244Z,100546.31
2023-06-24T18:35:44.227Z,100542.56
2023-06-24T18:40:47.024Z,100543.63
2023-06-24T18:45:51.768Z,100542.42
2023-06-24T18:50:54.863Z,100537.41
2023-06-24T18:55:58.231Z,100538.40
2023-06-24T19:01:01.603Z,100549.69
2023-06-24T19:06:04.406Z,100555.38
2023-06-24T19:11:07.394Z,100562.50
2023-06-24T19:16:10.205Z,100570.94
2023-06-24T19:21:13.250Z,100574.05
2023-06-24T19:26:16.132Z,100576.73
2023-06-24T19:31:19.225Z,100584.27
2023-06-24T19:36:22.261Z,100586.77
2023-06-24T19:41:25.068Z,100586.73
2023-06-24T19:46:40.122Z,100591.77
2023-06-24T19:51:44.475Z,100587.46
2023-06-24T19:56:47.372Z,100589.88
2023-06-24T20:01:50.217Z,100600.29
2023-06-24T20:06:53.206Z,100599.55
2023-06-24T20:11:56.262Z,100604.65
2023-06-24T20:16:59.030Z,100598.83
2023-06-24T20:22:02.556Z,100601.75
2023-06-24T20:27:07.825Z,100605.81
2023-06-24T20:32:11.955Z,100603.15
2023-06-24T20:37:14.917Z,100606.31
2023-06-24T20:42:17.804Z,100603.44
2023-06-24T20:47:20.606Z,100609.67
2023-06-24T20:52:23.490Z,100610.55
2023-06-24T20:57:26.300Z,100611.02
2023-06-24T21:02:30.300Z,100614.20
2023-06-24T21:07:34.540Z,100615.56
2023-06-24T21:12:49.620Z,100622.57
2023-06-24T21:18:01.723Z,100626.68
2023-06-24T21:23:05.638Z,100627.05
2023-06-24T21:28:08.652Z,100630.14
2023-06-24T21:33:11.630Z,100635.62
2023-06-24T21:38:14.431Z,100636.30
2023-06-24T21:43:17.580Z,100639.81
2023-06-24T21:48:22.861Z,100639.21
2023-06-24T21:53:28.350Z,100638.94
2023-06-24T21:58:32.844Z,100642.23
2023-06-24T22:03:35.646Z,100646.50
2023-06-24T22:08:38.611Z,100644.88
2023-06-24T22:13:41.473Z,100645.17
2023-06-24T22:18:44.303Z,100643.26
2023-06-24T22:23:47.183Z,100642.70
2023-06-24T22:28:50.510Z,100643.12
2023-06-24T22:33:58.691Z,100644.29
2023-06-24T22:39:17.064Z,100645.82
2023-06-24T22:44:26.564Z,100639.58
2023-06-24T22:49:30.276Z,100637.91
2023-06-24T22:54:33.044Z,100641.98
2023-06-24T22:59:35.862Z,100639.34
2023-06-24T23:04:38.846Z,100637.30
2023-06-24T23:09:42.026Z,100641.52
2023-06-24T23:14:45.178Z,100634.20
2023-06-24T23:19:50.047Z,100635.99
2023-06-24T23:24:56.301Z,100637.85
2023-06-24T23:30:02.045Z,100640.20
2023-06-24T23:35:11.919Z,100644.56
2023-06-24T23:40:14.823Z,100641.84
2023-06-24T23:45:17.975Z,100636.23
2023-06-24T23:50:20.782Z,100633.46
2023-06-24T23:55:24.975Z,100632.07
